Time;durP1;ratioP1;P1;durP2;ratioP2;P2;SDS_P1;SDS_P2;PMS_P1;PMS_P2;Temp;Humidity;BMP_temperature;BMP_pressure;BME280_temperature;BME280_humidity;BME280_pressure;Samples;Min_cycle;Max_cycle;Signal;HPM_P1;HPM_P2
2022/08/06 00:02:23;;;;;;;2.90;1.35;;;;;;;;;;5076042;28;20024;-71
2022/08/06 00:04:49;;;;;;;4.15;1.38;;;;;;;;;;5076537;28;20032;-72
2022/08/06 00:07:14;;;;;;;3.92;1.30;;;;;;;;;;5076098;28;20025;-72
2022/08/06 00:09:39;;;;;;;1.67;1.20;;;;;;;;;;5076127;28;20056;-71
2022/08/06 00:12:06;;;;;;;2.77;1.50;;;;;;;;;;5076317;28;20381;-71
2022/08/06 00:14:32;;;;;;;4.18;1.38;;;;;;;;;;5075896;28;20256;-74
2022/08/06 00:16:58;;;;;;;4.32;1.30;;;;;;;;;;5076008;28;20028;-72
2022/08/06 00:19:23;;;;;;;2.25;1.20;;;;;;;;;;5075928;28;20385;-73
2022/08/06 00:21:49;;;;;;;3.47;1.13;;;;;;;;;;5076090;28;20469;-72
2022/08/06 00:24:15;;;;;;;2.47;1.17;;;;;;;;;;5075629;28;20036;-72
2022/08/06 00:26:40;;;;;;;2.70;1.30;;;;;;;;;;5075813;28;20444;-72
2022/08/06 00:29:06;;;;;;;1.70;1.20;;;;;;;;;;5076082;28;20021;-72
2022/08/06 00:31:32;;;;;;;3.42;1.58;;;;;;;;;;5075652;28;20103;-72
2022/08/06 00:34:00;;;;;;;1.98;1.42;;;;;;;;;;5075621;28;20120;-71
2022/08/06 00:36:26;;;;;;;3.65;1.70;;;;;;;;;;5057751;28;20020;-71
2022/08/06 00:38:52;;;;;;;2.40;1.60;;;;;;;;;;5075574;28;20103;-72
2022/08/06 00:41:18;;;;;;;4.45;1.65;;;;;;;;;;5075708;28;20509;-71
2022/08/06 00:43:43;;;;;;;2.47;1.67;;;;;;;;;;5075643;28;20032;-72
2022/08/06 00:46:08;;;;;;;4.10;1.70;;;;;;;;;;5075432;28;20381;-71
2022/08/06 00:48:33;;;;;;;3.50;1.80;;;;;;;;;;5057454;28;20257;-71
2022/08/06 00:50:58;;;;;;;3.63;1.63;;;;;;;;;;5075353;28;20257;-71
2022/08/06 00:53:24;;;;;;;2.85;1.80;;;;;;;;;;5075501;28;20292;-72
2022/08/06 00:55:49;;;;;;;2.93;2.10;;;;;;;;;;5075242;28;20032;-71
2022/08/06 00:58:14;;;;;;;3.20;1.90;;;;;;;;;;5077923;28;20257;-78
2022/08/06 01:00:40;;;;;;;2.75;1.80;;;;;;;;;;5062250;28;20119;-79
2022/08/06 01:03:05;;;;;;;3.80;2.03;;;;;;;;;;5061092;28;20094;-78
2022/08/06 01:05:30;;;;;;;2.95;2.03;;;;;;;;;;5079536;28;20111;-79
2022/08/06 01:07:56;;;;;;;3.22;2.05;;;;;;;;;;5079942;28;20032;-79
2022/08/06 01:10:24;;;;;;;3.53;1.63;;;;;;;;;;5079793;28;20032;-78
2022/08/06 01:12:49;;;;;;;3.92;2.10;;;;;;;;;;5078555;28;20256;-79
2022/08/06 01:15:14;;;;;;;2.20;1.90;;;;;;;;;;5078965;28;20087;-79
2022/08/06 01:17:56;;;;;;;2.35;1.70;;;;;;;;;;5078228;28;20288;-77
2022/08/06 01:20:29;;;;;;;2.80;1.70;;;;;;;;;;5078714;28;20393;-79
2022/08/06 01:23:08;;;;;;;2.20;1.80;;;;;;;;;;5078436;28;20496;-80
2022/08/06 01:26:12;;;;;;;3.30;1.90;;;;;;;;;;5060895;28;20039;-78
2022/08/06 01:28:42;;;;;;;2.97;1.63;;;;;;;;;;5055211;28;20040;-80
2022/08/06 01:31:18;;;;;;;3.17;1.70;;;;;;;;;;5078578;28;20035;-80
2022/08/06 01:33:51;;;;;;;3.47;1.50;;;;;;;;;;5079561;28;20024;-78
2022/08/06 01:36:22;;;;;;;6.22;1.83;;;;;;;;;;5079203;28;20027;-79
2022/08/06 01:38:50;;;;;;;2.92;1.60;;;;;;;;;;5079269;28;20031;-78
2022/08/06 01:44:13;;;;;;;5.20;1.60;;;;;;;;;;5078493;28;20107;-80
2022/08/06 01:46:43;;;;;;;5.30;1.67;;;;;;;;;;5077503;28;20035;-78
2022/08/06 01:49:10;;;;;;;3.08;1.80;;;;;;;;;;5078336;28;20445;-80
2022/08/06 01:51:38;;;;;;;4.32;1.70;;;;;;;;;;5077423;28;20115;-80
2022/08/06 01:54:07;;;;;;;3.45;1.80;;;;;;;;;;5077067;28;20016;-80
2022/08/06 01:56:36;;;;;;;2.72;1.88;;;;;;;;;;5059622;28;20025;-79
2022/08/06 01:59:04;;;;;;;2.90;1.67;;;;;;;;;;5077487;28;20024;-80
2022/08/06 02:01:32;;;;;;;5.05;1.95;;;;;;;;;;5077408;28;20031;-80
2022/08/06 02:03:59;;;;;;;4.35;1.88;;;;;;;;;;5077905;28;20092;-79
2022/08/06 02:06:31;;;;;;;7.30;2.25;;;;;;;;;;5078320;28;20024;-80
2022/08/06 02:09:00;;;;;;;4.25;1.90;;;;;;;;;;5077915;28;20068;-79
2022/08/06 02:11:25;;;;;;;3.63;1.92;;;;;;;;;;5077498;28;20107;-77
2022/08/06 02:13:54;;;;;;;3.50;1.70;;;;;;;;;;5078067;28;20059;-79
2022/08/06 02:16:21;;;;;;;4.25;2.00;;;;;;;;;;5077761;28;20024;-81
2022/08/06 02:18:50;;;;;;;4.00;1.95;;;;;;;;;;5077747;28;20029;-78
2022/08/06 02:21:19;;;;;;;3.70;1.95;;;;;;;;;;5078212;28;20028;-79
2022/08/06 02:23:45;;;;;;;2.67;1.85;;;;;;;;;;5077354;28;20435;-79
2022/08/06 02:26:13;;;;;;;3.55;2.00;;;;;;;;;;5077389;28;20028;-80
2022/08/06 02:28:40;;;;;;;4.22;1.92;;;;;;;;;;5077979;28;20024;-79
2022/08/06 02:31:06;;;;;;;4.30;2.00;;;;;;;;;;5077418;28;20099;-78
2022/08/06 02:33:31;;;;;;;3.58;1.67;;;;;;;;;;5077340;28;20040;-79
2022/08/06 02:36:07;;;;;;;2.47;1.73;;;;;;;;;;5059318;28;20111;-78
2022/08/06 02:38:45;;;;;;;5.18;1.60;;;;;;;;;;5078693;28;20478;-79
2022/08/06 02:41:28;;;;;;;4.00;1.85;;;;;;;;;;5077171;28;20474;-80
2022/08/06 02:44:05;;;;;;;3.25;1.80;;;;;;;;;;5079040;28;20024;-80
2022/08/06 02:46:58;;;;;;;2.90;2.00;;;;;;;;;;5060680;28;20068;-79
2022/08/06 02:49:29;;;;;;;1.80;1.60;;;;;;;;;;5078720;28;20076;-80
2022/08/06 02:52:04;;;;;;;5.75;1.45;;;;;;;;;;5060127;28;20036;-79
2022/08/06 02:54:37;;;;;;;2.65;1.48;;;;;;;;;;5078021;28;20035;-79
2022/08/06 02:57:06;;;;;;;4.25;1.40;;;;;;;;;;5078399;28;20474;-80
2022/08/06 02:59:35;;;;;;;3.70;1.70;;;;;;;;;;5078360;28;20493;-79
2022/08/06 03:02:05;;;;;;;2.20;1.52;;;;;;;;;;5078075;28;20040;-79
2022/08/06 03:04:33;;;;;;;2.40;1.40;;;;;;;;;;5058567;28;20089;-78
2022/08/06 03:07:01;;;;;;;2.78;1.48;;;;;;;;;;5077589;28;20032;-80
2022/08/06 03:09:27;;;;;;;2.05;1.35;;;;;;;;;;5077949;28;20039;-80
2022/08/06 03:11:53;;;;;;;2.90;1.20;;;;;;;;;;5077602;28;20028;-79
2022/08/06 03:14:20;;;;;;;2.03;1.20;;;;;;;;;;5060438;28;20115;-80
2022/08/06 03:16:47;;;;;;;1.60;1.10;;;;;;;;;;5078593;28;20024;-79
2022/08/06 03:19:12;;;;;;;1.70;1.00;;;;;;;;;;5078585;28;20477;-78
2022/08/06 03:21:39;;;;;;;2.42;1.30;;;;;;;;;;5078580;28;20032;-79
2022/08/06 03:24:07;;;;;;;1.63;1.13;;;;;;;;;;5063941;28;20025;-79
2022/08/06 03:26:34;;;;;;;2.67;1.10;;;;;;;;;;5082251;28;20600;-80
2022/08/06 03:29:00;;;;;;;2.75;1.30;;;;;;;;;;5064168;28;20481;-78
2022/08/06 03:31:29;;;;;;;6.78;1.27;;;;;;;;;;5083433;28;20028;-80
2022/08/06 03:33:55;;;;;;;1.75;1.10;;;;;;;;;;5066387;28;20477;-79
2022/08/06 03:36:22;;;;;;;1.83;1.20;;;;;;;;;;5065077;28;20036;-80
2022/08/06 03:38:53;;;;;;;1.10;0.93;;;;;;;;;;5084767;28;20051;-80
2022/08/06 03:41:18;;;;;;;2.05;1.13;;;;;;;;;;5084744;28;20055;-78
2022/08/06 03:43:44;;;;;;;2.80;1.23;;;;;;;;;;5085202;28;20033;-80
2022/08/06 03:46:10;;;;;;;2.30;0.90;;;;;;;;;;5086930;28;20029;-79
2022/08/06 03:48:40;;;;;;;2.72;1.20;;;;;;;;;;5086692;28;20031;-77
2022/08/06 03:51:12;;;;;;;2.40;1.20;;;;;;;;;;5085758;28;20469;-79
2022/08/06 03:53:40;;;;;;;1.70;1.30;;;;;;;;;;5087317;28;20028;-79
2022/08/06 03:56:07;;;;;;;2.20;1.25;;;;;;;;;;5099917;28;20015;-80
2022/08/06 03:58:35;;;;;;;2.85;1.23;;;;;;;;;;5102348;28;20016;-82
2022/08/06 04:01:04;;;;;;;1.50;1.17;;;;;;;;;;5102409;28;20024;-79
2022/08/06 04:03:31;;;;;;;1.90;1.10;;;;;;;;;;5090791;28;20163;-77
2022/08/06 04:05:58;;;;;;;5.00;1.30;;;;;;;;;;5079983;28;20029;-77
2022/08/06 04:08:24;;;;;;;1.65;0.80;;;;;;;;;;5081470;28;20028;-77
2022/08/06 04:10:50;;;;;;;1.73;1.00;;;;;;;;;;5079572;28;20031;-77
2022/08/06 04:13:18;;;;;;;1.20;0.70;;;;;;;;;;5082564;28;20028;-77
2022/08/06 04:15:44;;;;;;;1.30;0.90;;;;;;;;;;5082345;28;20082;-78
2022/08/06 04:18:13;;;;;;;3.05;0.82;;;;;;;;;;5082617;28;20055;-77
2022/08/06 04:20:42;;;;;;;1.30;1.08;;;;;;;;;;5082922;28;20032;-77
2022/08/06 04:23:08;;;;;;;1.42;0.65;;;;;;;;;;5080810;28;20124;-78
2022/08/06 04:25:40;;;;;;;1.92;0.70;;;;;;;;;;5082791;28;20083;-77
2022/08/06 04:28:06;;;;;;;1.38;0.77;;;;;;;;;;5099078;28;20091;-77
2022/08/06 04:30:34;;;;;;;1.48;0.73;;;;;;;;;;5082231;28;20122;-80
2022/08/06 04:33:02;;;;;;;2.15;0.90;;;;;;;;;;5083468;28;20024;-78
2022/08/06 04:35:29;;;;;;;1.27;0.68;;;;;;;;;;5083219;28;20024;-78
2022/08/06 04:37:55;;;;;;;1.45;0.75;;;;;;;;;;5084234;28;20482;-79
2022/08/06 04:40:22;;;;;;;1.23;0.70;;;;;;;;;;5084466;28;20025;-80
2022/08/06 04:42:47;;;;;;;1.75;0.80;;;;;;;;;;5082965;28;20032;-81
2022/08/06 04:45:13;;;;;;;2.97;0.85;;;;;;;;;;5082524;28;20031;-78
2022/08/06 04:47:38;;;;;;;2.50;0.60;;;;;;;;;;5082751;28;20028;-79
2022/08/06 04:50:04;;;;;;;2.08;0.60;;;;;;;;;;5083739;28;20028;-79
2022/08/06 04:52:30;;;;;;;1.40;0.68;;;;;;;;;;5081926;28;20025;-78
2022/08/06 04:54:55;;;;;;;0.65;0.60;;;;;;;;;;5083934;28;20020;-79
2022/08/06 04:57:21;;;;;;;1.17;0.80;;;;;;;;;;5082025;28;20059;-79
2022/08/06 04:59:46;;;;;;;0.93;0.60;;;;;;;;;;5082794;28;20020;-79
2022/08/06 05:02:11;;;;;;;0.67;0.50;;;;;;;;;;5082464;28;20029;-79
2022/08/06 05:04:38;;;;;;;2.25;0.70;;;;;;;;;;5080872;28;20276;-78
2022/08/06 05:07:13;;;;;;;1.10;0.65;;;;;;;;;;5079034;28;20481;-80
2022/08/06 05:09:39;;;;;;;0.68;0.60;;;;;;;;;;5081386;28;20048;-78
2022/08/06 05:12:11;;;;;;;1.10;0.60;;;;;;;;;;5079985;28;20374;-78
2022/08/06 05:14:51;;;;;;;1.05;0.60;;;;;;;;;;5080233;28;20029;-79
2022/08/06 05:17:20;;;;;;;2.30;0.82;;;;;;;;;;5061446;28;20024;-80
2022/08/06 05:19:52;;;;;;;2.53;0.80;;;;;;;;;;5081389;28;20032;-78
2022/08/06 05:22:19;;;;;;;2.90;0.63;;;;;;;;;;5079821;28;20059;-78
2022/08/06 05:24:47;;;;;;;2.78;0.60;;;;;;;;;;5080444;28;20028;-78
2022/08/06 05:27:12;;;;;;;2.10;0.70;;;;;;;;;;5081857;28;20028;-80
2022/08/06 05:29:40;;;;;;;1.60;0.63;;;;;;;;;;5080648;28;20020;-79
2022/08/06 05:32:05;;;;;;;2.55;0.80;;;;;;;;;;5080437;28;20035;-79
2022/08/06 05:34:30;;;;;;;1.17;0.60;;;;;;;;;;5080364;28;20036;-78
2022/08/06 05:36:56;;;;;;;2.03;0.50;;;;;;;;;;5079098;28;20092;-79
2022/08/06 05:39:22;;;;;;;0.50;0.50;;;;;;;;;;5061043;28;20261;-79
2022/08/06 05:41:48;;;;;;;1.38;0.60;;;;;;;;;;5060777;28;20885;-79
2022/08/06 05:44:13;;;;;;;2.92;0.45;;;;;;;;;;5060173;28;20060;-77
2022/08/06 05:46:50;;;;;;;2.53;0.50;;;;;;;;;;5078598;28;20027;-81
2022/08/06 05:49:27;;;;;;;0.40;0.40;;;;;;;;;;5080011;28;20257;-78
2022/08/06 05:52:12;;;;;;;0.90;0.50;;;;;;;;;;5080731;28;20066;-79
2022/08/06 05:55:01;;;;;;;0.80;0.50;;;;;;;;;;5079660;28;20520;-79
2022/08/06 05:57:39;;;;;;;0.32;0.32;;;;;;;;;;5060612;28;20028;-79
2022/08/06 06:00:10;;;;;;;2.70;0.55;;;;;;;;;;5079241;28;20028;-79
2022/08/06 06:02:39;;;;;;;1.73;0.60;;;;;;;;;;5080135;28;20024;-78
2022/08/06 06:05:06;;;;;;;1.55;0.40;;;;;;;;;;5081302;28;20059;-78
2022/08/06 06:07:31;;;;;;;0.57;0.52;;;;;;;;;;5080870;28;20020;-78
2022/08/06 06:09:57;;;;;;;2.80;0.73;;;;;;;;;;5078905;28;20047;-77
2022/08/06 06:12:23;;;;;;;3.65;0.55;;;;;;;;;;5078933;28;20029;-78
2022/08/06 06:14:50;;;;;;;0.98;0.50;;;;;;;;;;5061875;28;20398;-78
2022/08/06 06:17:31;;;;;;;0.88;0.43;;;;;;;;;;5079652;28;20508;-78
2022/08/06 06:20:08;;;;;;;1.65;0.60;;;;;;;;;;5079763;28;20385;-79
2022/08/06 06:22:59;;;;;;;1.15;0.40;;;;;;;;;;5078713;28;20021;-79
2022/08/06 06:25:35;;;;;;;1.15;0.50;;;;;;;;;;5079511;28;20028;-80
2022/08/06 06:28:19;;;;;;;2.53;0.60;;;;;;;;;;5077687;28;20021;-78
2022/08/06 06:31:19;;;;;;;2.38;0.50;;;;;;;;;;5059809;28;20091;-79
2022/08/06 06:33:55;;;;;;;0.95;0.50;;;;;;;;;;5078197;28;20020;-79
2022/08/06 06:36:28;;;;;;;0.50;0.50;;;;;;;;;;5060072;28;20440;-79
2022/08/06 06:38:59;;;;;;;0.60;0.40;;;;;;;;;;5077157;28;20028;-79
2022/08/06 06:41:33;;;;;;;1.30;0.40;;;;;;;;;;5078184;28;20090;-78
2022/08/06 06:44:04;;;;;;;;;;;;;;;;;;5060412;28;20081;-80
2022/08/06 06:46:56;;;;;;;3.10;0.65;;;;;;;;;;5078428;28;20319;-78
2022/08/06 06:49:42;;;;;;;2.30;0.70;;;;;;;;;;5077948;28;20051;-79
2022/08/06 06:52:21;;;;;;;1.38;0.57;;;;;;;;;;5058022;28;20058;-77
2022/08/06 06:54:50;;;;;;;2.42;0.60;;;;;;;;;;5077552;28;20078;-78
2022/08/06 06:57:20;;;;;;;2.22;0.50;;;;;;;;;;5078766;28;20078;-78
2022/08/06 06:59:51;;;;;;;0.82;0.52;;;;;;;;;;5077970;28;20025;-78
2022/08/06 07:02:22;;;;;;;1.25;0.43;;;;;;;;;;5077888;28;20032;-79
2022/08/06 07:04:50;;;;;;;3.85;0.73;;;;;;;;;;5078058;28;20032;-78
2022/08/06 07:07:17;;;;;;;0.80;0.60;;;;;;;;;;5059907;28;20398;-78
2022/08/06 07:09:43;;;;;;;4.25;0.60;;;;;;;;;;5064682;28;20111;-79
2022/08/06 07:12:10;;;;;;;2.55;0.50;;;;;;;;;;5077066;28;20032;-77
2022/08/06 07:14:38;;;;;;;2.58;0.60;;;;;;;;;;5076815;28;20039;-79
2022/08/06 07:17:05;;;;;;;1.13;0.50;;;;;;;;;;5075892;28;20411;-78
2022/08/06 07:19:31;;;;;;;1.73;0.50;;;;;;;;;;5075723;28;20025;-78
2022/08/06 07:21:58;;;;;;;1.67;0.52;;;;;;;;;;5076288;28;20389;-80
2022/08/06 07:24:26;;;;;;;1.35;0.47;;;;;;;;;;5076096;28;20046;-79
2022/08/06 07:26:53;;;;;;;0.75;0.57;;;;;;;;;;5076107;28;20028;-78
2022/08/06 07:29:19;;;;;;;2.10;0.70;;;;;;;;;;5076314;28;20432;-77
2022/08/06 07:31:47;;;;;;;1.15;0.60;;;;;;;;;;5074811;28;20020;-79
2022/08/06 07:34:14;;;;;;;1.95;0.60;;;;;;;;;;5075975;28;20027;-78
2022/08/06 07:36:52;;;;;;;3.15;0.60;;;;;;;;;;5074902;28;20024;-79
2022/08/06 07:39:24;;;;;;;2.33;0.60;;;;;;;;;;5076755;28;20028;-77
2022/08/06 07:41:53;;;;;;;2.92;0.50;;;;;;;;;;5077521;28;20028;-79
2022/08/06 07:44:20;;;;;;;2.83;0.70;;;;;;;;;;5077742;28;20560;-78
2022/08/06 07:46:50;;;;;;;1.77;0.63;;;;;;;;;;5076795;28;20028;-78
2022/08/06 07:49:18;;;;;;;1.05;0.50;;;;;;;;;;5075124;28;20050;-79
2022/08/06 07:51:45;;;;;;;3.05;0.77;;;;;;;;;;5075785;28;20025;-78
2022/08/06 07:54:11;;;;;;;3.83;0.88;;;;;;;;;;5077084;28;20100;-79
2022/08/06 07:56:40;;;;;;;2.72;0.65;;;;;;;;;;5076013;28;20059;-78
2022/08/06 07:59:08;;;;;;;1.13;0.45;;;;;;;;;;5076913;28;20108;-78
2022/08/06 08:01:34;;;;;;;0.88;0.47;;;;;;;;;;5074844;28;20375;-79
2022/08/06 08:06:44;;;;;;;1.33;0.50;;;;;;;;;;5077282;28;20085;-79
2022/08/06 08:09:13;;;;;;;1.15;0.52;;;;;;;;;;5079761;28;20048;-78
2022/08/06 08:11:41;;;;;;;1.13;0.60;;;;;;;;;;5080886;28;20024;-79
2022/08/06 08:14:10;;;;;;;2.67;0.63;;;;;;;;;;5079682;28;20051;-77
2022/08/06 08:16:36;;;;;;;1.25;0.45;;;;;;;;;;5078997;28;20076;-78
2022/08/06 08:19:02;;;;;;;1.73;0.65;;;;;;;;;;5079341;28;20055;-78
2022/08/06 08:21:31;;;;;;;0.85;0.40;;;;;;;;;;5079488;28;20028;-79
2022/08/06 08:23:56;;;;;;;1.73;0.52;;;;;;;;;;5079919;28;20031;-79
2022/08/06 08:26:21;;;;;;;1.15;0.32;;;;;;;;;;5081449;28;20020;-79
2022/08/06 08:28:47;;;;;;;0.65;0.50;;;;;;;;;;5080266;28;20458;-79
2022/08/06 08:31:13;;;;;;;3.63;0.70;;;;;;;;;;5062181;28;20036;-79
2022/08/06 08:33:39;;;;;;;1.35;0.43;;;;;;;;;;5080221;28;20733;-78
2022/08/06 08:36:04;;;;;;;1.35;0.50;;;;;;;;;;5079994;28;20016;-79
2022/08/06 08:38:32;;;;;;;0.50;0.50;;;;;;;;;;5080247;28;20055;-78
2022/08/06 08:41:04;;;;;;;0.50;0.50;;;;;;;;;;5079450;28;20082;-77
2022/08/06 08:43:35;;;;;;;0.80;0.43;;;;;;;;;;5079312;28;20048;-77
2022/08/06 08:46:02;;;;;;;0.55;0.40;;;;;;;;;;5079226;28;20023;-79
2022/08/06 08:48:29;;;;;;;0.68;0.60;;;;;;;;;;5080581;28;20051;-80
2022/08/06 08:50:57;;;;;;;1.02;0.43;;;;;;;;;;5062642;28;20024;-80
2022/08/06 08:53:42;;;;;;;1.33;0.40;;;;;;;;;;5082549;28;20099;-79
2022/08/06 08:56:08;;;;;;;0.93;0.50;;;;;;;;;;5062508;28;20032;-80
2022/08/06 08:58:36;;;;;;;0.75;0.50;;;;;;;;;;5082366;28;20152;-79
2022/08/06 09:01:04;;;;;;;1.13;0.80;;;;;;;;;;5063500;28;20024;-78
2022/08/06 09:03:30;;;;;;;1.25;0.40;;;;;;;;;;5079944;28;20040;-80
2022/08/06 09:05:55;;;;;;;2.50;0.52;;;;;;;;;;5079780;28;20036;-78
2022/08/06 09:08:21;;;;;;;1.02;0.43;;;;;;;;;;5060797;28;20037;-78
2022/08/06 09:10:46;;;;;;;2.92;0.50;;;;;;;;;;5078592;28;20443;-78
2022/08/06 09:13:12;;;;;;;3.22;0.60;;;;;;;;;;5079877;28;20025;-79
2022/08/06 09:15:37;;;;;;;1.50;0.40;;;;;;;;;;5080646;28;20028;-78
2022/08/06 09:18:04;;;;;;;0.52;0.45;;;;;;;;;;5080414;28;20261;-78
2022/08/06 09:20:29;;;;;;;1.10;0.60;;;;;;;;;;5079475;28;20035;-79
2022/08/06 09:22:55;;;;;;;2.08;0.60;;;;;;;;;;5061087;28;20025;-79
2022/08/06 09:25:43;;;;;;;0.73;0.43;;;;;;;;;;5079420;28;20032;-79
2022/08/06 09:28:10;;;;;;;2.95;0.85;;;;;;;;;;5080294;28;20249;-79
2022/08/06 09:30:37;;;;;;;0.93;0.30;;;;;;;;;;5079513;28;20522;-79
2022/08/06 09:33:02;;;;;;;2.25;1.08;;;;;;;;;;5079038;28;20051;-78
2022/08/06 09:35:29;;;;;;;1.60;0.50;;;;;;;;;;5078593;28;20020;-79
2022/08/06 09:38:05;;;;;;;1.55;0.70;;;;;;;;;;5079115;28;20030;-77
2022/08/06 09:40:31;;;;;;;3.70;0.60;;;;;;;;;;5079777;28;20025;-81
2022/08/06 09:42:57;;;;;;;1.15;0.52;;;;;;;;;;5079434;28;20485;-81
2022/08/06 09:45:24;;;;;;;2.80;0.70;;;;;;;;;;5092310;28;20016;-79
2022/08/06 09:48:03;;;;;;;0.70;0.30;;;;;;;;;;5100165;28;20009;-81
2022/08/06 09:50:43;;;;;;;1.08;0.50;;;;;;;;;;5100145;28;20042;-80
2022/08/06 09:53:09;;;;;;;3.50;0.60;;;;;;;;;;5099522;28;20023;-79
2022/08/06 09:55:35;;;;;;;0.70;0.30;;;;;;;;;;5076025;28;20439;-78
2022/08/06 09:58:01;;;;;;;0.95;0.70;;;;;;;;;;5077028;28;20024;-78
2022/08/06 10:00:29;;;;;;;0.45;0.43;;;;;;;;;;5077003;28;20123;-77
2022/08/06 10:03:05;;;;;;;2.10;0.50;;;;;;;;;;5059830;28;20028;-77
2022/08/06 10:05:32;;;;;;;2.30;0.50;;;;;;;;;;5077978;28;20036;-78
2022/08/06 10:08:09;;;;;;;2.47;0.50;;;;;;;;;;5078707;28;20107;-78
2022/08/06 10:10:42;;;;;;;4.72;0.55;;;;;;;;;;5078633;28;20440;-77
2022/08/06 10:13:13;;;;;;;1.50;0.50;;;;;;;;;;5077981;28;20390;-79
2022/08/06 10:15:39;;;;;;;3.90;0.60;;;;;;;;;;5061470;28;20115;-79
2022/08/06 10:18:04;;;;;;;0.60;0.40;;;;;;;;;;5079749;28;20551;-80
2022/08/06 10:20:30;;;;;;;1.33;0.40;;;;;;;;;;5079193;28;20099;-78
2022/08/06 10:22:57;;;;;;;0.95;0.40;;;;;;;;;;5079325;28;20288;-79
2022/08/06 10:25:23;;;;;;;0.70;0.30;;;;;;;;;;5080290;28;20035;-78
2022/08/06 10:27:52;;;;;;;5.63;0.60;;;;;;;;;;5079866;28;20024;-79
2022/08/06 10:30:18;;;;;;;1.58;0.43;;;;;;;;;;5080917;28;20129;-78
2022/08/06 10:32:49;;;;;;;1.35;0.60;;;;;;;;;;5081479;28;20538;-79
2022/08/06 10:35:19;;;;;;;1.25;0.50;;;;;;;;;;5080384;28;20024;-78
2022/08/06 10:37:49;;;;;;;0.47;0.43;;;;;;;;;;5079935;28;20029;-78
2022/08/06 10:40:18;;;;;;;1.60;0.40;;;;;;;;;;5063430;28;20096;-78
2022/08/06 10:42:43;;;;;;;0.65;0.50;;;;;;;;;;5081045;28;20031;-78
2022/08/06 10:45:11;;;;;;;3.17;0.70;;;;;;;;;;5080457;28;20025;-79
2022/08/06 10:47:38;;;;;;;1.98;0.80;;;;;;;;;;5080263;28;20332;-78
2022/08/06 10:50:03;;;;;;;3.40;0.60;;;;;;;;;;5062232;28;20163;-80
2022/08/06 10:52:29;;;;;;;1.15;0.50;;;;;;;;;;5079290;28;20094;-78
2022/08/06 10:54:56;;;;;;;2.03;0.60;;;;;;;;;;5080596;28;20056;-78
2022/08/06 10:57:21;;;;;;;0.45;0.30;;;;;;;;;;5081582;28;20044;-78
2022/08/06 10:59:47;;;;;;;1.42;0.50;;;;;;;;;;5063451;28;20024;-79
2022/08/06 11:02:37;;;;;;;1.60;0.63;;;;;;;;;;5081686;28;20028;-80
2022/08/06 11:05:16;;;;;;;1.73;0.40;;;;;;;;;;5081272;28;20024;-78
2022/08/06 11:08:04;;;;;;;2.38;0.52;;;;;;;;;;5081047;28;20020;-78
2022/08/06 11:10:55;;;;;;;1.95;0.40;;;;;;;;;;5080593;28;20065;-79
2022/08/06 11:13:26;;;;;;;3.20;0.50;;;;;;;;;;5083455;28;20039;-79
2022/08/06 11:15:52;;;;;;;13.23;7.18;;;;;;;;;;5082703;28;20032;-80
2022/08/06 11:18:17;;;;;;;0.73;0.60;;;;;;;;;;5080994;28;20140;-79
2022/08/06 11:20:45;;;;;;;1.67;0.70;;;;;;;;;;5063942;28;20026;-80
2022/08/06 11:23:13;;;;;;;0.88;0.40;;;;;;;;;;5080698;28;20021;-79
2022/08/06 11:25:38;;;;;;;1.10;0.55;;;;;;;;;;5083402;28;20095;-80
2022/08/06 11:28:04;;;;;;;3.13;0.30;;;;;;;;;;5064984;28;20043;-79
2022/08/06 11:30:49;;;;;;;1.27;0.40;;;;;;;;;;5064692;28;20091;-79
2022/08/06 11:33:18;;;;;;;3.65;0.55;;;;;;;;;;5083112;28;20122;-79
2022/08/06 11:35:48;;;;;;;1.90;0.50;;;;;;;;;;5084317;28;20070;-79
2022/08/06 11:38:15;;;;;;;0.77;0.47;;;;;;;;;;5081376;28;20021;-78
2022/08/06 11:40:56;;;;;;;0.80;0.38;;;;;;;;;;5081925;28;20029;-80
2022/08/06 11:43:40;;;;;;;2.60;0.52;;;;;;;;;;5083875;28;20377;-78
2022/08/06 11:46:25;;;;;;;3.88;0.90;;;;;;;;;;5085386;28;20070;-77
2022/08/06 11:48:59;;;;;;;1.40;0.50;;;;;;;;;;5084854;28;20082;-80
2022/08/06 11:51:57;;;;;;;1.58;0.43;;;;;;;;;;5085383;28;20033;-78
2022/08/06 11:54:26;;;;;;;1.45;0.50;;;;;;;;;;5083296;28;20016;-80
2022/08/06 11:57:00;;;;;;;0.47;0.40;;;;;;;;;;5082990;28;20020;-79
2022/08/06 11:59:27;;;;;;;3.38;0.60;;;;;;;;;;5082507;28;20486;-78
2022/08/06 12:01:52;;;;;;;0.52;0.40;;;;;;;;;;5081968;28;20039;-80
2022/08/06 12:04:40;;;;;;;1.67;0.52;;;;;;;;;;5063864;28;20131;-81
2022/08/06 12:07:26;;;;;;;3.15;0.55;;;;;;;;;;5079459;28;20062;-79
2022/08/06 12:10:04;;;;;;;1.65;0.40;;;;;;;;;;5080087;28;20056;-80
2022/08/06 12:12:30;;;;;;;1.80;0.40;;;;;;;;;;5079635;28;20081;-80
2022/08/06 12:14:58;;;;;;;0.30;0.30;;;;;;;;;;5079563;28;20135;-82
2022/08/06 12:17:25;;;;;;;1.10;0.50;;;;;;;;;;5062512;28;20065;-82
2022/08/06 12:19:55;;;;;;;1.13;0.40;;;;;;;;;;5079417;28;20477;-79
2022/08/06 12:22:22;;;;;;;0.75;0.40;;;;;;;;;;5079695;28;20063;-80
2022/08/06 12:24:54;;;;;;;1.35;0.60;;;;;;;;;;5080031;28;20032;-81
2022/08/06 12:27:20;;;;;;;1.05;0.40;;;;;;;;;;5080466;28;20073;-80
2022/08/06 12:29:46;;;;;;;0.50;0.40;;;;;;;;;;5080174;28;20135;-80
2022/08/06 12:32:31;;;;;;;3.22;0.55;;;;;;;;;;5079789;28;20052;-78
2022/08/06 12:35:08;;;;;;;0.98;0.50;;;;;;;;;;5079250;28;20036;-79
2022/08/06 12:37:34;;;;;;;1.75;0.40;;;;;;;;;;5083223;28;20021;-79
2022/08/06 12:42:45;;;;;;;1.92;0.32;;;;;;;;;;5080024;28;20055;-79
2022/08/06 12:45:10;;;;;;;2.67;0.40;;;;;;;;;;5081798;28;20474;-78
2022/08/06 12:47:36;;;;;;;0.32;0.30;;;;;;;;;;5080981;28;20035;-80
2022/08/06 12:50:15;;;;;;;2.70;0.40;;;;;;;;;;5081502;28;20397;-78
2022/08/06 12:52:40;;;;;;;0.30;0.20;;;;;;;;;;5081793;28;20024;-78
2022/08/06 12:55:16;;;;;;;0.80;0.40;;;;;;;;;;5080531;28;20362;-79
2022/08/06 12:57:42;;;;;;;0.32;0.30;;;;;;;;;;5080767;28;20257;-80
2022/08/06 13:00:08;;;;;;;2.17;0.43;;;;;;;;;;5082338;28;20039;-79
2022/08/06 13:02:33;;;;;;;1.33;0.38;;;;;;;;;;5062362;28;20028;-80
2022/08/06 13:04:59;;;;;;;1.02;0.50;;;;;;;;;;5081918;28;20334;-79
2022/08/06 13:07:24;;;;;;;1.20;0.52;;;;;;;;;;5081600;28;20032;-78
2022/08/06 13:09:50;;;;;;;0.82;0.40;;;;;;;;;;5079918;28;20048;-79
2022/08/06 13:12:18;;;;;;;0.63;0.30;;;;;;;;;;5080171;28;20051;-79
2022/08/06 13:14:52;;;;;;;3.97;0.45;;;;;;;;;;5063612;28;20055;-78
2022/08/06 13:17:21;;;;;;;0.63;0.40;;;;;;;;;;5063063;28;20032;-80
2022/08/06 13:19:53;;;;;;;1.58;0.50;;;;;;;;;;5080199;28;20505;-77
2022/08/06 13:22:19;;;;;;;5.18;0.40;;;;;;;;;;5079886;28;20036;-78
2022/08/06 13:24:44;;;;;;;5.03;0.47;;;;;;;;;;5078985;28;20033;-78
2022/08/06 13:27:10;;;;;;;0.55;0.30;;;;;;;;;;5078870;28;20027;-78
2022/08/06 13:29:35;;;;;;;1.70;0.47;;;;;;;;;;5079844;28;20024;-79
2022/08/06 13:32:10;;;;;;;0.82;0.40;;;;;;;;;;5061509;28;20283;-78
2022/08/06 13:34:49;;;;;;;0.80;0.20;;;;;;;;;;5081473;28;20013;-79
2022/08/06 13:37:14;;;;;;;1.50;0.40;;;;;;;;;;5080569;28;20025;-79
2022/08/06 13:39:52;;;;;;;0.40;0.28;;;;;;;;;;5080719;28;20355;-80
2022/08/06 13:42:17;;;;;;;0.60;0.40;;;;;;;;;;5079771;28;20028;-79
2022/08/06 13:44:45;;;;;;;0.65;0.50;;;;;;;;;;5081530;28;20497;-79
2022/08/06 13:47:13;;;;;;;3.70;0.52;;;;;;;;;;5080375;28;20070;-79
2022/08/06 13:49:39;;;;;;;1.88;0.40;;;;;;;;;;5079517;28;20028;-80
2022/08/06 13:52:04;;;;;;;0.30;0.30;;;;;;;;;;5060351;28;20412;-77
2022/08/06 13:54:30;;;;;;;1.20;0.38;;;;;;;;;;5080780;28;20024;-79
2022/08/06 13:56:56;;;;;;;0.65;0.30;;;;;;;;;;5080497;28;20098;-79
2022/08/06 13:59:24;;;;;;;1.75;0.45;;;;;;;;;;5080404;28;20358;-80
2022/08/06 14:01:50;;;;;;;0.55;0.43;;;;;;;;;;5061564;28;20035;-77
2022/08/06 14:04:19;;;;;;;1.27;0.40;;;;;;;;;;5063236;28;20040;-78
2022/08/06 14:06:46;;;;;;;0.80;0.50;;;;;;;;;;5078382;28;20025;-78
2022/08/06 14:09:12;;;;;;;1.50;0.32;;;;;;;;;;5077834;28;20397;-79
2022/08/06 14:11:37;;;;;;;1.17;0.38;;;;;;;;;;5060046;28;20043;-79
2022/08/06 14:14:02;;;;;;;3.73;0.30;;;;;;;;;;5061408;28;20028;-78
2022/08/06 14:16:28;;;;;;;3.40;0.30;;;;;;;;;;5062758;28;20269;-78
2022/08/06 14:18:54;;;;;;;0.90;0.50;;;;;;;;;;5080281;28;20037;-77
2022/08/06 14:21:20;;;;;;;1.55;0.47;;;;;;;;;;5080718;28;20590;-78
2022/08/06 14:23:45;;;;;;;1.00;0.73;;;;;;;;;;5081035;28;20032;-78
2022/08/06 14:26:10;;;;;;;1.60;1.13;;;;;;;;;;5079421;28;20299;-79
2022/08/06 14:28:35;;;;;;;0.80;0.50;;;;;;;;;;5079252;28;20264;-79
2022/08/06 14:31:01;;;;;;;3.53;0.90;;;;;;;;;;5081149;28;20257;-81
2022/08/06 14:33:26;;;;;;;0.60;0.60;;;;;;;;;;5078818;28;20026;-79
2022/08/06 14:35:51;;;;;;;0.38;0.30;;;;;;;;;;5080451;28;20032;-79
2022/08/06 14:38:23;;;;;;;0.40;0.40;;;;;;;;;;5080471;28;20024;-79
2022/08/06 14:46:16;;;;;;;;;;;;;;;;;;5081230;28;20509;-79
2022/08/06 14:48:41;;;;;;;0.77;0.23;;;;;;;;;;5082108;28;19908;-80
2022/08/06 14:51:06;;;;;;;0.50;0.30;;;;;;;;;;5081010;28;20091;-78
2022/08/06 14:53:31;;;;;;;0.40;0.40;;;;;;;;;;5079806;28;20021;-79
2022/08/06 14:55:57;;;;;;;0.50;0.33;;;;;;;;;;5079172;28;20268;-78
2022/08/06 14:58:22;;;;;;;0.93;0.40;;;;;;;;;;5079904;28;20269;-78
2022/08/06 15:00:47;;;;;;;1.77;0.27;;;;;;;;;;5061809;28;20284;-78
2022/08/06 15:03:17;;;;;;;0.52;0.30;;;;;;;;;;5079305;28;20281;-78
2022/08/06 15:05:43;;;;;;;0.65;0.50;;;;;;;;;;5061242;28;20108;-78
2022/08/06 15:08:08;;;;;;;0.93;0.45;;;;;;;;;;5078974;28;20056;-79
2022/08/06 15:10:33;;;;;;;1.13;0.40;;;;;;;;;;5079852;28;20024;-78